Paramount Hamilton — 2CWB2 — position and weather

sailwx.info

Track history (hours):
 
Tides and Currents Weather Stations Pressure Air Temp Water Temp Dewpoint Dewpoint Depression Visibility Wind Speed Wind Dir Waves Ship Positions

Paramount Hamilton

Last reported at 2014-Oct-21 17:16 UTC. Time now 2014-Oct-26 03:42 UTC.
Position N 39°08' W 075°14'.

Length 250 m; draft 8 m.

Type: Tanker. MMSI: 235076274.

Date/timePositionNaut miles runAvg speedWind from/ knotsBaromVisibWave heightAir tempDewpointWater temp
2014-Oct-21 17:16N 39°08' W 075°14'1115.5
2014-Oct-21 16:33N 39°17' W 075°22'1514.5
2014-Oct-21 15:33N 39°28' W 075°34'1110.8
2014-Oct-21 14:33N 39°39' W 075°33'1010.3
2014-Oct-21 13:33N 39°48' W 075°26'2 1.5
2014-Oct-21 12:31N 39°49' W 075°24'0 0.2
2014-Oct-21 11:28N 39°48' W 075°24'0 0.1
2014-Oct-21 10:31N 39°48' W 075°24'0 0.0
2014-Oct-21 09:31N 39°48' W 075°24'0 0.0
2014-Oct-21 08:31N 39°48' W 075°24'0 0.0
2014-Oct-21 07:31N 39°48' W 075°24'0 0.0
2014-Oct-21 06:31N 39°48' W 075°24'0 0.0
2014-Oct-21 05:31N 39°48' W 075°24'0 0.3
2014-Oct-21 04:31N 39°49' W 075°24'0 0.0
2014-Oct-21 03:31N 39°49' W 075°24'0 0.0
2014-Oct-21 02:22N 39°49' W 075°24'0 0.0
2014-Oct-21 01:31N 39°49' W 075°24'0 0.0
2014-Oct-21 00:25N 39°49' W 075°24'0 0.2
2014-Oct-20 23:28N 39°48' W 075°24'0 0.0
2014-Oct-20 22:33N 39°48' W 075°24'0 0.0
2014-Oct-19 22:28N 39°49' W 075°24'6 6.7
2014-Oct-19 21:33N 39°44' W 075°30'1010.3
2014-Oct-19 20:33N 39°34' W 075°33'1010.1
2014-Oct-19 19:33N 39°24' W 075°30'1111.1
2014-Oct-19 18:33N 39°16' W 075°21'19 0.6
2014-Oct-18 12:30N 38°59' W 075°12'0 0.1
2014-Oct-18 11:09N 38°59' W 075°12'  
2014-Oct-15 23:06N 38°59' W 075°12'0 0.0
2014-Oct-15 01:12N 38°59' W 075°12'0 0.1
2014-Oct-15 00:30N 38°59' W 075°12'0 0.1
2014-Oct-14 23:27N 38°59' W 075°12'0 0.0
2014-Oct-14 22:33N 38°59' W 075°12'0 0.0
2014-Oct-14 08:18N 38°59' W 075°12'  
2014-Oct-11 23:23N 38°57' W 075°10'  
Track history (hours):
 
Tides and Currents Weather Stations Pressure Air Temp Water Temp Dewpoint Dewpoint Depression Visibility Wind Speed Wind Dir Waves Ship Positions

Paramount Hamilton

Last reported at 2014-Oct-21 17:16 UTC. Time now 2014-Oct-26 03:42 UTC.
Position N 39°08' W 075°14'.

Length 250 m; draft 8 m.

Type: Tanker. MMSI: 235076274.

Date/timePositionNaut miles runAvg speedWind from/ knotsBaromVisibWave heightAir tempDewpointWater temp
2014-Oct-21 17:16N 39°08' W 075°14'1115.5
2014-Oct-21 16:33N 39°17' W 075°22'1514.5
2014-Oct-21 15:33N 39°28' W 075°34'1110.8
2014-Oct-21 14:33N 39°39' W 075°33'1010.3
2014-Oct-21 13:33N 39°48' W 075°26'2 1.5
2014-Oct-21 12:31N 39°49' W 075°24'0 0.2
2014-Oct-21 11:28N 39°48' W 075°24'0 0.1
2014-Oct-21 10:31N 39°48' W 075°24'0 0.0
2014-Oct-21 09:31N 39°48' W 075°24'0 0.0
2014-Oct-21 08:31N 39°48' W 075°24'0 0.0
2014-Oct-21 07:31N 39°48' W 075°24'0 0.0
2014-Oct-21 06:31N 39°48' W 075°24'0 0.0
2014-Oct-21 05:31N 39°48' W 075°24'0 0.3
2014-Oct-21 04:31N 39°49' W 075°24'0 0.0
2014-Oct-21 03:31N 39°49' W 075°24'0 0.0
2014-Oct-21 02:22N 39°49' W 075°24'0 0.0
2014-Oct-21 01:31N 39°49' W 075°24'0 0.0
2014-Oct-21 00:25N 39°49' W 075°24'0 0.2
2014-Oct-20 23:28N 39°48' W 075°24'0 0.0
2014-Oct-20 22:33N 39°48' W 075°24'0 0.0
2014-Oct-19 22:28N 39°49' W 075°24'6 6.7
2014-Oct-19 21:33N 39°44' W 075°30'1010.3
2014-Oct-19 20:33N 39°34' W 075°33'1010.1
2014-Oct-19 19:33N 39°24' W 075°30'1111.1
2014-Oct-19 18:33N 39°16' W 075°21'19 0.6
2014-Oct-18 12:30N 38°59' W 075°12'0 0.1
2014-Oct-18 11:09N 38°59' W 075°12'  
2014-Oct-15 23:06N 38°59' W 075°12'0 0.0
2014-Oct-15 01:12N 38°59' W 075°12'0 0.1
2014-Oct-15 00:30N 38°59' W 075°12'0 0.1
2014-Oct-14 23:27N 38°59' W 075°12'0 0.0
2014-Oct-14 22:33N 38°59' W 075°12'0 0.0
2014-Oct-14 08:18N 38°59' W 075°12'  
2014-Oct-11 23:23N 38°57' W 075°10'  

Dump ship's entire track history